Time;durP1;ratioP1;P1;durP2;ratioP2;P2;SDS_P1;SDS_P2;PMS_P1;PMS_P2;Temp;Humidity;BMP_temperature;BMP_pressure;BME280_temperature;BME280_humidity;BME280_pressure;Samples;Min_cycle;Max_cycle;Signal;HPM_P1;HPM_P2
2023/06/02 00:01:49;;;;;;;1.37;1.10;;;;;;;;;;5015783;28;59245;-64
2023/06/02 00:04:17;;;;;;;1.35;0.57;;;;;;;;;;5019294;28;59480;-64
2023/06/02 00:06:45;;;;;;;0.50;0.40;;;;;;;;;;5022260;28;59777;-63
2023/06/02 00:09:11;;;;;;;0.77;0.43;;;;;;;;;;5015823;28;59568;-64
2023/06/02 00:11:36;;;;;;;0.73;0.73;;;;;;;;;;5020546;28;59460;-63
2023/06/02 00:14:02;;;;;;;2.05;0.68;;;;;;;;;;5020664;28;59489;-64
2023/06/02 00:16:27;;;;;;;0.45;0.40;;;;;;;;;;5015747;28;59157;-64
2023/06/02 00:18:53;;;;;;;0.57;0.50;;;;;;;;;;5015270;28;59560;-64
2023/06/02 00:21:18;;;;;;;1.53;0.53;;;;;;;;;;5019047;28;59247;-59
2023/06/02 00:23:44;;;;;;;1.77;0.75;;;;;;;;;;5019675;28;61091;-63
2023/06/02 00:26:09;;;;;;;0.73;0.73;;;;;;;;;;5017108;28;59624;-62
2023/06/02 00:28:35;;;;;;;1.08;0.43;;;;;;;;;;5018578;28;59483;-64
2023/06/02 00:31:00;;;;;;;0.50;0.50;;;;;;;;;;5018982;28;59715;-64
2023/06/02 00:33:25;;;;;;;0.95;0.73;;;;;;;;;;5019049;28;59409;-64
2023/06/02 00:35:50;;;;;;;0.75;0.70;;;;;;;;;;5018837;28;59690;-63
2023/06/02 00:38:15;;;;;;;0.50;0.50;;;;;;;;;;5012276;28;59660;-64
2023/06/02 00:40:40;;;;;;;0.50;0.30;;;;;;;;;;5018793;28;59118;-64
2023/06/02 00:43:06;;;;;;;1.03;0.40;;;;;;;;;;5015966;28;59767;-63
2023/06/02 00:45:32;;;;;;;0.33;0.27;;;;;;;;;;5011812;28;59645;-65
2023/06/02 00:47:57;;;;;;;0.40;0.30;;;;;;;;;;5019346;28;59321;-64
2023/06/02 00:50:25;;;;;;;0.40;0.30;;;;;;;;;;5014047;28;59124;-64
2023/06/02 00:52:51;;;;;;;1.15;0.57;;;;;;;;;;5015109;28;60105;-64
2023/06/02 00:55:16;;;;;;;0.45;0.20;;;;;;;;;;5013077;28;59140;-64
2023/06/02 00:57:42;;;;;;;0.80;0.57;;;;;;;;;;5015497;28;59075;-63
2023/06/02 01:00:09;;;;;;;0.77;0.27;;;;;;;;;;5016531;28;59448;-64
2023/06/02 01:02:34;;;;;;;0.30;0.30;;;;;;;;;;5013580;28;59098;-65
2023/06/02 01:05:00;;;;;;;0.60;0.20;;;;;;;;;;5017555;28;58786;-64
2023/06/02 01:07:27;;;;;;;0.65;0.63;;;;;;;;;;5014097;28;58533;-65
2023/06/02 01:09:54;;;;;;;1.08;0.55;;;;;;;;;;5020048;28;59461;-64
2023/06/02 01:12:20;;;;;;;0.65;0.32;;;;;;;;;;5019942;28;59502;-64
2023/06/02 01:14:46;;;;;;;0.32;0.30;;;;;;;;;;5015835;28;60068;-64
2023/06/02 01:17:11;;;;;;;0.40;0.30;;;;;;;;;;5013287;28;59571;-65
2023/06/02 01:19:38;;;;;;;2.23;0.33;;;;;;;;;;5017258;28;59478;-61
2023/06/02 01:22:04;;;;;;;0.93;0.30;;;;;;;;;;5016724;28;59497;-65
2023/06/02 01:24:39;;;;;;;2.03;0.50;;;;;;;;;;5020344;28;59287;-64
2023/06/02 01:27:08;;;;;;;0.25;0.25;;;;;;;;;;5016446;28;59563;-64
2023/06/02 01:29:35;;;;;;;0.45;0.45;;;;;;;;;;5017523;28;59696;-64
2023/06/02 01:32:02;;;;;;;0.80;0.77;;;;;;;;;;5018951;28;59471;-64
2023/06/02 01:34:31;;;;;;;1.23;0.40;;;;;;;;;;5018018;28;59802;-63
2023/06/02 01:36:57;;;;;;;2.95;1.05;;;;;;;;;;5016130;28;59088;-64
2023/06/02 01:39:23;;;;;;;0.47;0.30;;;;;;;;;;5012164;28;59479;-64
2023/06/02 01:41:49;;;;;;;1.35;0.30;;;;;;;;;;5021951;28;59139;-64
2023/06/02 01:44:14;;;;;;;1.25;0.47;;;;;;;;;;5014948;28;59184;-64
2023/06/02 01:46:40;;;;;;;0.47;0.40;;;;;;;;;;5018524;28;59449;-64
2023/06/02 01:49:12;;;;;;;0.20;0.20;;;;;;;;;;5018312;28;59689;-64
2023/06/02 01:51:37;;;;;;;0.75;0.60;;;;;;;;;;5014992;28;59017;-64
2023/06/02 01:54:04;;;;;;;1.10;0.80;;;;;;;;;;5018669;28;59391;-64
2023/06/02 01:56:29;;;;;;;0.38;0.30;;;;;;;;;;5011610;28;59242;-64
2023/06/02 01:58:55;;;;;;;0.57;0.57;;;;;;;;;;5018900;28;59623;-64
2023/06/02 02:01:21;;;;;;;3.47;0.25;;;;;;;;;;5012239;28;59749;-64
2023/06/02 02:03:46;;;;;;;0.20;0.10;;;;;;;;;;5015270;28;59407;-64
2023/06/02 02:06:11;;;;;;;0.82;0.40;;;;;;;;;;5013763;28;59454;-64
2023/06/02 02:08:36;;;;;;;0.40;0.35;;;;;;;;;;5017708;28;59218;-64
2023/06/02 02:11:01;;;;;;;0.50;0.30;;;;;;;;;;5013839;28;59240;-64
2023/06/02 02:13:27;;;;;;;0.57;0.37;;;;;;;;;;5012238;28;59001;-64
2023/06/02 02:15:52;;;;;;;0.55;0.55;;;;;;;;;;5017259;28;59575;-61
2023/06/02 02:18:20;;;;;;;1.03;0.50;;;;;;;;;;5015234;28;59369;-64
2023/06/02 02:20:45;;;;;;;;;;;;;;;;;;5019597;28;59804;-65
2023/06/02 02:23:10;;;;;;;0.20;0.20;;;;;;;;;;5015592;28;59582;-63
2023/06/02 02:25:35;;;;;;;0.67;0.40;;;;;;;;;;5015863;28;59233;-64
2023/06/02 02:28:00;;;;;;;0.50;0.50;;;;;;;;;;5017788;28;59559;-64
2023/06/02 02:30:26;;;;;;;0.43;0.20;;;;;;;;;;5013451;28;59207;-63
2023/06/02 02:32:51;;;;;;;0.35;0.35;;;;;;;;;;5017946;28;59475;-64
2023/06/02 02:35:17;;;;;;;0.50;0.45;;;;;;;;;;5011139;28;62772;-64
2023/06/02 02:37:43;;;;;;;0.80;0.27;;;;;;;;;;5019256;28;59561;-64
2023/06/02 02:40:09;;;;;;;0.90;0.30;;;;;;;;;;5014130;28;58606;-64
2023/06/02 02:42:34;;;;;;;0.20;0.10;;;;;;;;;;5016746;28;60629;-64
2023/06/02 02:45:00;;;;;;;0.40;0.30;;;;;;;;;;5017222;28;59099;-64
2023/06/02 02:47:25;;;;;;;0.22;0.22;;;;;;;;;;5017276;28;59586;-64
2023/06/02 02:49:50;;;;;;;1.30;1.00;;;;;;;;;;5017332;28;59627;-64
2023/06/02 02:52:16;;;;;;;0.60;0.30;;;;;;;;;;5013803;28;59352;-64
2023/06/02 02:54:41;;;;;;;0.20;0.20;;;;;;;;;;5013164;28;59734;-64
2023/06/02 02:57:07;;;;;;;0.38;0.32;;;;;;;;;;5010827;28;59025;-64
2023/06/02 02:59:33;;;;;;;0.50;0.20;;;;;;;;;;5012716;28;59755;-64
2023/06/02 03:01:58;;;;;;;0.77;0.63;;;;;;;;;;5013851;28;59546;-64
2023/06/02 03:04:24;;;;;;;0.60;0.20;;;;;;;;;;5010102;28;59472;-65
2023/06/02 03:06:49;;;;;;;1.02;0.68;;;;;;;;;;5017978;28;59119;-64
2023/06/02 03:09:15;;;;;;;0.52;0.20;;;;;;;;;;5017928;28;59710;-64
2023/06/02 03:11:41;;;;;;;0.47;0.30;;;;;;;;;;5014791;28;59152;-64
2023/06/02 03:14:06;;;;;;;0.85;0.57;;;;;;;;;;5017236;28;59692;-63
2023/06/02 03:16:31;;;;;;;0.28;0.20;;;;;;;;;;5012183;28;59532;-64
2023/06/02 03:18:56;;;;;;;0.30;0.30;;;;;;;;;;5016888;28;59327;-64
2023/06/02 03:21:22;;;;;;;0.50;0.50;;;;;;;;;;5017461;28;59263;-63
2023/06/02 03:23:47;;;;;;;0.52;0.38;;;;;;;;;;5016955;28;59203;-64
2023/06/02 03:26:12;;;;;;;0.53;0.40;;;;;;;;;;5014923;28;59707;-64
2023/06/02 03:28:39;;;;;;;0.83;0.30;;;;;;;;;;5011108;28;59399;-63
2023/06/02 03:31:04;;;;;;;1.10;0.40;;;;;;;;;;5018889;28;59368;-64
2023/06/02 03:33:29;;;;;;;0.97;0.27;;;;;;;;;;5013296;28;59044;-65
2023/06/02 03:35:55;;;;;;;0.40;0.40;;;;;;;;;;5014247;28;59592;-64
2023/06/02 03:38:20;;;;;;;0.55;0.38;;;;;;;;;;5014432;28;59185;-64
2023/06/02 03:40:45;;;;;;;0.20;0.10;;;;;;;;;;5020714;28;59560;-64
2023/06/02 03:43:11;;;;;;;0.25;0.25;;;;;;;;;;5011094;28;59369;-64
2023/06/02 03:45:36;;;;;;;0.37;0.30;;;;;;;;;;5017110;28;59270;-64
2023/06/02 03:48:01;;;;;;;1.08;0.60;;;;;;;;;;5014268;28;59251;-64
2023/06/02 03:50:26;;;;;;;0.80;0.68;;;;;;;;;;5015116;28;59117;-64
2023/06/02 03:52:52;;;;;;;0.43;0.43;;;;;;;;;;5012939;28;59542;-65
2023/06/02 03:55:18;;;;;;;0.65;0.30;;;;;;;;;;5010460;28;60730;-63
2023/06/02 03:57:43;;;;;;;0.50;0.35;;;;;;;;;;5013789;28;59511;-64
2023/06/02 04:00:10;;;;;;;0.63;0.50;;;;;;;;;;5010602;28;59733;-63
2023/06/02 04:02:35;;;;;;;0.30;0.10;;;;;;;;;;5013626;28;60034;-64
2023/06/02 04:05:01;;;;;;;0.40;0.23;;;;;;;;;;5008938;28;62279;-64
2023/06/02 04:07:26;;;;;;;0.67;0.30;;;;;;;;;;5010772;28;59107;-63
2023/06/02 04:09:51;;;;;;;1.02;0.82;;;;;;;;;;5012203;28;59254;-65
2023/06/02 04:12:16;;;;;;;0.20;0.20;;;;;;;;;;5015208;28;60893;-64
2023/06/02 04:14:41;;;;;;;0.40;0.40;;;;;;;;;;5012085;28;59658;-64
2023/06/02 04:17:07;;;;;;;0.75;0.32;;;;;;;;;;5019848;28;59506;-64
2023/06/02 04:19:32;;;;;;;0.20;0.20;;;;;;;;;;5011282;28;59871;-63
2023/06/02 04:21:57;;;;;;;0.50;0.50;;;;;;;;;;5012440;28;59264;-64
2023/06/02 04:24:22;;;;;;;0.60;0.52;;;;;;;;;;5012597;28;59314;-64
2023/06/02 04:26:48;;;;;;;0.50;0.30;;;;;;;;;;5015289;28;60372;-63
2023/06/02 04:29:13;;;;;;;1.08;0.38;;;;;;;;;;5017763;28;59498;-64
2023/06/02 04:31:42;;;;;;;1.50;0.90;;;;;;;;;;5014206;28;59532;-64
2023/06/02 04:34:07;;;;;;;0.95;0.73;;;;;;;;;;5010828;28;59438;-64
2023/06/02 04:36:33;;;;;;;2.33;0.33;;;;;;;;;;5013592;28;59459;-66
2023/06/02 04:38:58;;;;;;;2.78;0.50;;;;;;;;;;5007631;28;59793;-66
2023/06/02 04:41:24;;;;;;;5.57;0.75;;;;;;;;;;5018343;28;60229;-63
2023/06/02 04:43:50;;;;;;;3.65;0.73;;;;;;;;;;5013603;28;59559;-63
2023/06/02 04:46:16;;;;;;;6.78;1.50;;;;;;;;;;5014935;28;59503;-63
2023/06/02 04:48:41;;;;;;;6.00;1.87;;;;;;;;;;5011768;28;59338;-64
2023/06/02 04:51:07;;;;;;;3.15;1.42;;;;;;;;;;5015212;28;60638;-63
2023/06/02 04:53:32;;;;;;;2.00;0.80;;;;;;;;;;5013965;28;59531;-62
2023/06/02 04:55:58;;;;;;;11.18;2.42;;;;;;;;;;5014553;28;59490;-63
2023/06/02 04:58:23;;;;;;;4.30;1.88;;;;;;;;;;5012103;28;59522;-62
2023/06/02 05:00:48;;;;;;;11.85;3.17;;;;;;;;;;5016490;28;59738;-63
2023/06/02 05:03:14;;;;;;;6.13;1.50;;;;;;;;;;5011457;28;59305;-62
2023/06/02 05:05:39;;;;;;;5.30;1.95;;;;;;;;;;5018459;28;59527;-63
2023/06/02 05:08:04;;;;;;;6.30;1.50;;;;;;;;;;5017363;28;59350;-64
2023/06/02 05:10:30;;;;;;;14.52;2.92;;;;;;;;;;5021154;28;59243;-62
2023/06/02 05:12:55;;;;;;;9.27;1.30;;;;;;;;;;5015282;28;59599;-62
2023/06/02 05:15:20;;;;;;;7.85;2.45;;;;;;;;;;5021319;28;59253;-63
2023/06/02 05:17:45;;;;;;;4.82;1.25;;;;;;;;;;5014757;28;59434;-63
2023/06/02 05:20:10;;;;;;;6.17;2.30;;;;;;;;;;5016355;28;59217;-63
2023/06/02 05:22:36;;;;;;;4.13;2.33;;;;;;;;;;5023054;28;59256;-64
2023/06/02 05:25:02;;;;;;;5.22;1.65;;;;;;;;;;5017246;28;59088;-62
2023/06/02 05:27:27;;;;;;;4.47;1.77;;;;;;;;;;5013705;28;59196;-63
2023/06/02 05:29:52;;;;;;;6.73;2.13;;;;;;;;;;5019425;28;59670;-63
2023/06/02 05:32:22;;;;;;;4.75;1.50;;;;;;;;;;5016074;28;60352;-63
2023/06/02 05:34:47;;;;;;;6.38;1.13;;;;;;;;;;5018754;28;58454;-64
2023/06/02 05:37:12;;;;;;;5.70;1.97;;;;;;;;;;5014871;28;59391;-62
2023/06/02 05:39:39;;;;;;;4.60;1.13;;;;;;;;;;5016233;28;59024;-64
2023/06/02 05:42:04;;;;;;;6.00;1.55;;;;;;;;;;5011642;28;59178;-62
2023/06/02 05:44:29;;;;;;;4.82;0.93;;;;;;;;;;5019461;28;59120;-64
2023/06/02 05:46:55;;;;;;;2.65;1.42;;;;;;;;;;5012779;28;59203;-63
2023/06/02 05:49:20;;;;;;;2.60;1.20;;;;;;;;;;5016286;28;59242;-62
2023/06/02 05:51:45;;;;;;;3.30;1.52;;;;;;;;;;5014896;28;59164;-63
2023/06/02 05:54:10;;;;;;;3.13;1.43;;;;;;;;;;5014123;28;59273;-63
2023/06/02 05:56:35;;;;;;;2.20;1.17;;;;;;;;;;5016521;28;60893;-63
2023/06/02 05:59:01;;;;;;;3.27;1.73;;;;;;;;;;5012518;28;59298;-63
2023/06/02 06:01:28;;;;;;;5.73;1.40;;;;;;;;;;5012686;28;59710;-63
2023/06/02 06:03:53;;;;;;;2.40;1.00;;;;;;;;;;5014881;28;59446;-63
2023/06/02 06:06:18;;;;;;;5.00;1.35;;;;;;;;;;5014835;28;59397;-64
2023/06/02 06:08:43;;;;;;;3.73;1.53;;;;;;;;;;5012980;28;59545;-63
2023/06/02 06:11:08;;;;;;;2.60;1.20;;;;;;;;;;5014004;28;59275;-63
2023/06/02 06:13:34;;;;;;;3.97;1.23;;;;;;;;;;5010287;28;59182;-63
2023/06/02 06:15:59;;;;;;;2.40;1.00;;;;;;;;;;5010270;28;60898;-63
2023/06/02 06:18:25;;;;;;;4.13;1.73;;;;;;;;;;5011262;28;59872;-62
2023/06/02 06:20:50;;;;;;;4.97;1.60;;;;;;;;;;5011695;28;59424;-61
2023/06/02 06:23:15;;;;;;;1.23;0.80;;;;;;;;;;5010156;28;59216;-63
2023/06/02 06:25:40;;;;;;;3.93;0.90;;;;;;;;;;5018275;28;58548;-63
2023/06/02 06:28:05;;;;;;;5.77;2.13;;;;;;;;;;5019236;28;59055;-63
2023/06/02 06:30:30;;;;;;;1.83;1.20;;;;;;;;;;5015394;28;59244;-63
2023/06/02 06:32:56;;;;;;;3.65;1.05;;;;;;;;;;5024032;28;59206;-63
2023/06/02 06:35:21;;;;;;;4.60;0.77;;;;;;;;;;5018052;28;59347;-64
2023/06/02 06:37:46;;;;;;;2.67;1.52;;;;;;;;;;5018326;28;59128;-63
2023/06/02 06:40:11;;;;;;;2.50;1.27;;;;;;;;;;5016305;28;59097;-63
2023/06/02 06:42:36;;;;;;;3.23;1.33;;;;;;;;;;5018142;28;59218;-63
2023/06/02 06:45:01;;;;;;;2.70;1.70;;;;;;;;;;5017084;28;59249;-63
2023/06/02 06:47:26;;;;;;;0.88;0.63;;;;;;;;;;5016159;28;59175;-62
2023/06/02 06:49:52;;;;;;;2.20;0.85;;;;;;;;;;5014244;28;59501;-63
2023/06/02 06:52:18;;;;;;;2.65;1.05;;;;;;;;;;5016084;28;59174;-63
2023/06/02 06:54:43;;;;;;;1.45;0.75;;;;;;;;;;5015307;28;59356;-63
2023/06/02 06:57:09;;;;;;;1.77;1.00;;;;;;;;;;5009103;28;59530;-62
2023/06/02 06:59:35;;;;;;;3.45;1.17;;;;;;;;;;5015484;28;59228;-63
2023/06/02 07:02:00;;;;;;;3.60;1.27;;;;;;;;;;5013650;28;59143;-63
2023/06/02 07:04:25;;;;;;;4.47;0.77;;;;;;;;;;5011051;28;59601;-63
2023/06/02 07:06:52;;;;;;;2.05;0.80;;;;;;;;;;5020630;28;59260;-64
2023/06/02 07:09:17;;;;;;;1.47;0.67;;;;;;;;;;5014691;28;59128;-63
2023/06/02 07:11:42;;;;;;;2.10;1.07;;;;;;;;;;5012020;28;59553;-62
2023/06/02 07:14:07;;;;;;;1.90;0.97;;;;;;;;;;5013753;28;59342;-64
2023/06/02 07:16:32;;;;;;;1.25;0.80;;;;;;;;;;5017418;28;59259;-63
2023/06/02 07:18:57;;;;;;;4.57;1.43;;;;;;;;;;5011567;28;59431;-63
2023/06/02 07:21:22;;;;;;;4.43;0.97;;;;;;;;;;5020621;28;59835;-63
2023/06/02 07:23:48;;;;;;;2.97;1.05;;;;;;;;;;5012599;28;59232;-64
2023/06/02 07:26:13;;;;;;;2.10;1.40;;;;;;;;;;5011165;28;59225;-63
2023/06/02 07:28:38;;;;;;;1.47;0.70;;;;;;;;;;5013944;28;58967;-62
2023/06/02 07:31:04;;;;;;;2.55;0.90;;;;;;;;;;5019844;28;59225;-64
2023/06/02 07:33:29;;;;;;;2.47;0.77;;;;;;;;;;5013073;28;59157;-63
2023/06/02 07:35:54;;;;;;;1.75;1.13;;;;;;;;;;5015478;28;59061;-63
2023/06/02 07:38:19;;;;;;;0.50;0.40;;;;;;;;;;5012958;28;59258;-63
2023/06/02 07:40:45;;;;;;;0.70;0.60;;;;;;;;;;5016051;28;59521;-63
2023/06/02 07:43:10;;;;;;;2.58;0.70;;;;;;;;;;5010765;28;59278;-63
2023/06/02 07:45:35;;;;;;;0.60;0.50;;;;;;;;;;5015157;28;59609;-63
2023/06/02 07:48:00;;;;;;;2.72;0.80;;;;;;;;;;5011395;28;59500;-62
2023/06/02 07:50:26;;;;;;;3.17;1.43;;;;;;;;;;5016454;28;59388;-64
2023/06/02 07:52:51;;;;;;;1.07;0.63;;;;;;;;;;5013815;28;59388;-63
2023/06/02 07:55:16;;;;;;;1.80;0.60;;;;;;;;;;5010088;28;59065;-62
2023/06/02 07:57:41;;;;;;;1.53;0.80;;;;;;;;;;5019955;28;59219;-64
2023/06/02 08:00:13;;;;;;;1.58;0.75;;;;;;;;;;5012124;28;60651;-63
2023/06/02 08:02:40;;;;;;;2.28;1.27;;;;;;;;;;5016540;28;59148;-63
2023/06/02 08:05:05;;;;;;;1.95;0.60;;;;;;;;;;5012022;28;59109;-63
2023/06/02 08:07:30;;;;;;;2.80;0.97;;;;;;;;;;5014018;28;60982;-63
2023/06/02 08:09:55;;;;;;;1.63;0.50;;;;;;;;;;5021250;28;59439;-63
2023/06/02 08:12:20;;;;;;;3.00;1.20;;;;;;;;;;5015180;28;59220;-63
2023/06/02 08:14:46;;;;;;;1.07;0.50;;;;;;;;;;5024908;28;58981;-63
2023/06/02 08:17:11;;;;;;;0.98;0.77;;;;;;;;;;5015641;28;59725;-63
2023/06/02 08:19:36;;;;;;;0.38;0.30;;;;;;;;;;5019251;28;59404;-62
2023/06/02 08:22:02;;;;;;;1.10;0.53;;;;;;;;;;5020066;28;59270;-63
2023/06/02 08:24:28;;;;;;;0.93;0.55;;;;;;;;;;5013322;28;59280;-64
2023/06/02 08:26:54;;;;;;;0.88;0.55;;;;;;;;;;5019870;28;59109;-63
2023/06/02 08:29:20;;;;;;;2.17;1.17;;;;;;;;;;5018519;28;59230;-60
2023/06/02 08:31:46;;;;;;;1.38;0.70;;;;;;;;;;5023317;28;59147;-63
2023/06/02 08:34:11;;;;;;;0.77;0.57;;;;;;;;;;5013900;28;61981;-63
2023/06/02 08:36:36;;;;;;;1.38;0.77;;;;;;;;;;5019446;28;59259;-63
2023/06/02 08:39:06;;;;;;;2.55;0.60;;;;;;;;;;5014313;28;59309;-63
2023/06/02 08:41:32;;;;;;;0.77;0.40;;;;;;;;;;5016967;28;59428;-63
2023/06/02 08:43:57;;;;;;;1.40;0.70;;;;;;;;;;5014948;28;59111;-63
2023/06/02 08:46:23;;;;;;;1.05;0.45;;;;;;;;;;5018838;28;59196;-63
2023/06/02 08:48:51;;;;;;;1.87;1.00;;;;;;;;;;5017104;28;59872;-62
2023/06/02 08:51:16;;;;;;;;;;;;;;;;;;5016243;28;59402;-63
2023/06/02 08:53:41;;;;;;;0.57;0.57;;;;;;;;;;5020786;28;59583;-63
2023/06/02 08:56:06;;;;;;;1.13;0.60;;;;;;;;;;5011121;28;59376;-63
2023/06/02 08:58:32;;;;;;;5.30;0.80;;;;;;;;;;5019605;28;59104;-63
2023/06/02 09:00:57;;;;;;;1.55;0.75;;;;;;;;;;5013923;28;59612;-63
2023/06/02 09:03:26;;;;;;;4.20;0.90;;;;;;;;;;5013538;28;59394;-64
2023/06/02 09:05:51;;;;;;;1.88;0.85;;;;;;;;;;5019440;28;59109;-63
2023/06/02 09:08:16;;;;;;;1.60;0.57;;;;;;;;;;5017179;28;59199;-63
2023/06/02 09:10:42;;;;;;;0.87;0.47;;;;;;;;;;5014898;28;59424;-63
2023/06/02 09:13:07;;;;;;;1.95;0.65;;;;;;;;;;5014334;28;59438;-63
2023/06/02 09:15:32;;;;;;;2.75;1.40;;;;;;;;;;5021119;28;59149;-63
2023/06/02 09:18:08;;;;;;;0.75;0.50;;;;;;;;;;5014324;28;59195;-63
2023/06/02 09:20:37;;;;;;;0.77;0.55;;;;;;;;;;5012534;28;59710;-64
2023/06/02 09:23:03;;;;;;;2.72;0.90;;;;;;;;;;5019736;28;59501;-63
2023/06/02 09:25:29;;;;;;;0.65;0.30;;;;;;;;;;5015701;28;59439;-63
2023/06/02 09:27:55;;;;;;;0.85;0.63;;;;;;;;;;5010079;28;60587;-60
2023/06/02 09:30:20;;;;;;;2.38;1.00;;;;;;;;;;5016887;28;59253;-63
2023/06/02 09:32:52;;;;;;;0.60;0.60;;;;;;;;;;5021257;28;59263;-64
2023/06/02 09:35:36;;;;;;;0.90;0.57;;;;;;;;;;5015314;28;62365;-62
2023/06/02 09:38:02;;;;;;;1.08;0.57;;;;;;;;;;5013885;28;59228;-63
2023/06/02 09:40:28;;;;;;;0.43;0.43;;;;;;;;;;5015839;28;59188;-64
2023/06/02 09:42:53;;;;;;;0.50;0.50;;;;;;;;;;5016723;28;59006;-63
2023/06/02 09:45:19;;;;;;;0.73;0.50;;;;;;;;;;5018467;28;59310;-63
2023/06/02 09:47:44;;;;;;;1.60;0.57;;;;;;;;;;5020258;28;59348;-63
2023/06/02 09:50:10;;;;;;;0.90;0.50;;;;;;;;;;5015319;28;59386;-62
2023/06/02 09:52:35;;;;;;;1.02;0.52;;;;;;;;;;5015758;28;59533;-63
2023/06/02 09:55:00;;;;;;;0.63;0.35;;;;;;;;;;5012769;28;59400;-63
2023/06/02 09:57:25;;;;;;;1.73;0.80;;;;;;;;;;5016623;28;59225;-63
2023/06/02 09:59:51;;;;;;;0.80;0.60;;;;;;;;;;5013477;28;59604;-63
2023/06/02 10:02:16;;;;;;;0.77;0.47;;;;;;;;;;5013099;28;59335;-62
2023/06/02 10:04:41;;;;;;;1.23;0.77;;;;;;;;;;5014724;28;59231;-61
2023/06/02 10:07:23;;;;;;;1.00;0.50;;;;;;;;;;5016117;28;59624;-63
2023/06/02 10:10:08;;;;;;;0.82;0.60;;;;;;;;;;5014493;28;59228;-63
2023/06/02 10:12:52;;;;;;;0.45;0.45;;;;;;;;;;5014221;28;59433;-63
2023/06/02 10:15:20;;;;;;;0.73;0.50;;;;;;;;;;5018478;28;59273;-63
2023/06/02 10:17:52;;;;;;;0.70;0.50;;;;;;;;;;5011937;28;59126;-63
2023/06/02 10:20:20;;;;;;;1.20;1.10;;;;;;;;;;5015655;28;64620;-63
2023/06/02 10:23:04;;;;;;;2.75;0.38;;;;;;;;;;5016028;28;59089;-63
2023/06/02 10:25:31;;;;;;;0.75;0.75;;;;;;;;;;5013445;28;59176;-64
2023/06/02 10:27:56;;;;;;;0.63;0.40;;;;;;;;;;5013725;28;61910;-62
2023/06/02 10:30:22;;;;;;;0.82;0.40;;;;;;;;;;5013709;28;59069;-64
2023/06/02 10:32:49;;;;;;;1.02;0.55;;;;;;;;;;5021721;28;59246;-63
2023/06/02 10:35:14;;;;;;;0.40;0.40;;;;;;;;;;5011132;28;59112;-63
2023/06/02 10:37:40;;;;;;;0.40;0.40;;;;;;;;;;5021591;28;58964;-64
2023/06/02 10:40:06;;;;;;;0.70;0.40;;;;;;;;;;5017430;28;60280;-63
2023/06/02 10:42:31;;;;;;;0.50;0.45;;;;;;;;;;5015168;28;59176;-63
2023/06/02 10:45:15;;;;;;;0.37;0.33;;;;;;;;;;5018951;28;59088;-63
2023/06/02 10:47:40;;;;;;;1.25;0.45;;;;;;;;;;5023028;28;61380;-62
2023/06/02 10:50:09;;;;;;;1.37;0.70;;;;;;;;;;5016172;28;59690;-63
2023/06/02 10:52:34;;;;;;;0.70;0.70;;;;;;;;;;5016962;28;60578;-62
2023/06/02 10:55:12;;;;;;;1.55;0.90;;;;;;;;;;5013137;28;59662;-63
2023/06/02 10:57:56;;;;;;;0.30;0.30;;;;;;;;;;5011367;28;59298;-63
2023/06/02 11:00:36;;;;;;;0.50;0.50;;;;;;;;;;5016033;28;59240;-63
2023/06/02 11:03:13;;;;;;;0.93;0.60;;;;;;;;;;5016455;28;59672;-64
2023/06/02 11:05:39;;;;;;;1.80;1.13;;;;;;;;;;5014130;28;59236;-63
2023/06/02 11:08:14;;;;;;;1.13;0.83;;;;;;;;;;5013539;28;58869;-63
2023/06/02 11:10:39;;;;;;;0.65;0.65;;;;;;;;;;5017436;28;59469;-63
2023/06/02 11:13:05;;;;;;;0.63;0.47;;;;;;;;;;5013414;28;59266;-63
2023/06/02 11:15:30;;;;;;;0.50;0.40;;;;;;;;;;5012033;28;59142;-62
2023/06/02 11:17:56;;;;;;;0.70;0.40;;;;;;;;;;5018485;28;59467;-64
2023/06/02 11:20:31;;;;;;;0.73;0.57;;;;;;;;;;5012672;28;59616;-63
2023/06/02 11:23:02;;;;;;;0.30;0.30;;;;;;;;;;5015170;28;59261;-62
2023/06/02 11:25:27;;;;;;;1.15;0.70;;;;;;;;;;5014166;28;59121;-63
2023/06/02 11:27:52;;;;;;;1.40;0.60;;;;;;;;;;5014659;28;59782;-62
2023/06/02 11:30:18;;;;;;;1.53;0.60;;;;;;;;;;5012288;28;59357;-62
2023/06/02 11:32:44;;;;;;;0.52;0.40;;;;;;;;;;5015707;28;59036;-64
2023/06/02 11:35:10;;;;;;;0.40;0.30;;;;;;;;;;5020216;28;59849;-63
2023/06/02 11:37:36;;;;;;;0.57;0.43;;;;;;;;;;5022635;28;59282;-63
2023/06/02 11:40:03;;;;;;;0.20;0.20;;;;;;;;;;5017738;28;59592;-63
2023/06/02 11:42:34;;;;;;;0.47;0.40;;;;;;;;;;5020886;28;59269;-63
2023/06/02 11:45:00;;;;;;;0.32;0.32;;;;;;;;;;5022645;28;59146;-63
2023/06/02 11:47:25;;;;;;;0.70;0.30;;;;;;;;;;5021832;28;59616;-63
2023/06/02 11:49:50;;;;;;;0.77;0.50;;;;;;;;;;5015908;28;59195;-61
2023/06/02 11:52:15;;;;;;;0.70;0.40;;;;;;;;;;5018852;28;59311;-63
2023/06/02 11:54:53;;;;;;;0.73;0.50;;;;;;;;;;5019987;28;59577;-63
2023/06/02 11:57:26;;;;;;;0.88;0.55;;;;;;;;;;5023374;28;59252;-63
2023/06/02 12:00:12;;;;;;;0.95;0.40;;;;;;;;;;5032455;28;61057;-63
2023/06/02 12:02:40;;;;;;;2.10;1.00;;;;;;;;;;5020437;28;62795;-63
2023/06/02 12:05:09;;;;;;;1.70;0.55;;;;;;;;;;5017720;28;59598;-64
2023/06/02 12:07:35;;;;;;;8.23;0.80;;;;;;;;;;5017807;28;59281;-63
2023/06/02 12:10:00;;;;;;;3.67;0.68;;;;;;;;;;5026401;28;59376;-63
2023/06/02 12:12:25;;;;;;;3.33;1.03;;;;;;;;;;5018196;28;59359;-63
2023/06/02 12:14:50;;;;;;;1.20;1.00;;;;;;;;;;5026892;28;61896;-63
2023/06/02 12:17:15;;;;;;;1.33;0.50;;;;;;;;;;5017370;28;59278;-63
2023/06/02 12:19:41;;;;;;;0.73;0.70;;;;;;;;;;5022103;28;59555;-63
2023/06/02 12:22:10;;;;;;;0.73;0.50;;;;;;;;;;5019958;28;60031;-63
2023/06/02 12:24:38;;;;;;;1.95;0.80;;;;;;;;;;5021199;28;59295;-63
2023/06/02 12:27:04;;;;;;;0.55;0.40;;;;;;;;;;5021938;28;59792;-63
2023/06/02 12:29:30;;;;;;;1.02;0.80;;;;;;;;;;5017873;28;59531;-63
2023/06/02 12:32:15;;;;;;;0.80;0.40;;;;;;;;;;5017927;28;59270;-62
2023/06/02 12:34:42;;;;;;;2.50;0.57;;;;;;;;;;5025957;28;59944;-65
2023/06/02 12:37:07;;;;;;;1.05;0.95;;;;;;;;;;5027887;28;59282;-65
2023/06/02 12:39:34;;;;;;;1.10;1.00;;;;;;;;;;5029010;28;59032;-63
2023/06/02 12:41:59;;;;;;;1.33;0.60;;;;;;;;;;5026531;28;59587;-65
2023/06/02 12:44:26;;;;;;;0.90;0.50;;;;;;;;;;5028316;28;58878;-68
2023/06/02 12:46:52;;;;;;;0.95;0.45;;;;;;;;;;5025750;28;61630;-65
2023/06/02 12:49:17;;;;;;;0.82;0.50;;;;;;;;;;5022347;28;59762;-65
2023/06/02 12:51:43;;;;;;;0.77;0.60;;;;;;;;;;5023305;28;59313;-67
2023/06/02 12:54:08;;;;;;;1.17;0.60;;;;;;;;;;5025593;28;59272;-65
2023/06/02 12:56:33;;;;;;;0.43;0.43;;;;;;;;;;5023638;28;59554;-65
2023/06/02 12:58:58;;;;;;;2.43;0.50;;;;;;;;;;5017137;28;59191;-66
2023/06/02 13:01:23;;;;;;;1.20;0.77;;;;;;;;;;5020371;28;59229;-64
2023/06/02 13:03:53;;;;;;;2.47;0.70;;;;;;;;;;5025530;28;59482;-63
2023/06/02 13:06:18;;;;;;;1.20;0.50;;;;;;;;;;5026283;28;59280;-62
2023/06/02 13:08:44;;;;;;;1.60;0.40;;;;;;;;;;5025586;28;59536;-65
2023/06/02 13:11:09;;;;;;;3.45;0.70;;;;;;;;;;5013922;28;59560;-67
2023/06/02 13:13:35;;;;;;;1.30;0.60;;;;;;;;;;5021832;28;59283;-66
2023/06/02 13:16:00;;;;;;;2.72;0.30;;;;;;;;;;5023405;28;59705;-66
2023/06/02 13:18:25;;;;;;;0.40;0.40;;;;;;;;;;5023451;28;58548;-64
2023/06/02 13:20:50;;;;;;;3.63;1.23;;;;;;;;;;5026974;28;59516;-63
2023/06/02 13:23:16;;;;;;;1.93;0.50;;;;;;;;;;5017779;28;59538;-64
2023/06/02 13:25:42;;;;;;;0.98;0.45;;;;;;;;;;5024163;28;59511;-65
2023/06/02 13:28:07;;;;;;;1.50;0.63;;;;;;;;;;5020448;28;59614;-63
2023/06/02 13:30:32;;;;;;;0.60;0.53;;;;;;;;;;5021804;28;59760;-63
2023/06/02 13:32:57;;;;;;;0.60;0.60;;;;;;;;;;5014684;28;60201;-64
2023/06/02 13:35:22;;;;;;;1.10;0.90;;;;;;;;;;5022209;28;59748;-62
2023/06/02 13:37:48;;;;;;;1.27;0.47;;;;;;;;;;5024493;28;59484;-63
2023/06/02 13:40:13;;;;;;;0.98;0.40;;;;;;;;;;5023034;28;59836;-64
2023/06/02 13:42:39;;;;;;;2.30;0.43;;;;;;;;;;5021433;28;59631;-63
2023/06/02 13:45:05;;;;;;;0.40;0.38;;;;;;;;;;5021471;28;59653;-64
2023/06/02 13:47:30;;;;;;;1.08;0.50;;;;;;;;;;5025746;28;59406;-64
2023/06/02 13:49:55;;;;;;;1.10;0.60;;;;;;;;;;5015605;28;59587;-67
2023/06/02 13:52:20;;;;;;;0.73;0.50;;;;;;;;;;5021489;28;59556;-66
2023/06/02 13:54:45;;;;;;;0.77;0.30;;;;;;;;;;5020273;28;59662;-64
2023/06/02 13:57:11;;;;;;;1.87;0.60;;;;;;;;;;5021092;28;59248;-60
2023/06/02 13:59:36;;;;;;;1.15;0.50;;;;;;;;;;5014910;28;59417;-67
2023/06/02 14:02:01;;;;;;;0.77;0.37;;;;;;;;;;5021875;28;59446;-64
2023/06/02 14:04:26;;;;;;;1.15;0.60;;;;;;;;;;5023947;28;59203;-64
2023/06/02 14:06:52;;;;;;;0.80;0.50;;;;;;;;;;5023962;28;60835;-64
2023/06/02 14:09:17;;;;;;;1.23;0.73;;;;;;;;;;5024302;28;59484;-61
2023/06/02 14:11:43;;;;;;;0.98;0.50;;;;;;;;;;5017310;28;60762;-66
2023/06/02 14:14:08;;;;;;;2.25;0.60;;;;;;;;;;5024567;28;59624;-66
2023/06/02 14:16:33;;;;;;;0.43;0.43;;;;;;;;;;5024895;28;59428;-64
2023/06/02 14:18:58;;;;;;;2.73;0.53;;;;;;;;;;5021927;28;60809;-64
2023/06/02 14:21:24;;;;;;;1.70;1.03;;;;;;;;;;5022278;28;59251;-65
2023/06/02 14:23:50;;;;;;;1.77;0.40;;;;;;;;;;5017091;28;58895;-64
2023/06/02 14:26:15;;;;;;;0.73;0.50;;;;;;;;;;5023030;28;59633;-60
2023/06/02 14:28:40;;;;;;;0.50;0.50;;;;;;;;;;5022523;28;59713;-64
2023/06/02 14:31:05;;;;;;;0.70;0.70;;;;;;;;;;5024133;28;59490;-64
2023/06/02 14:33:30;;;;;;;0.63;0.43;;;;;;;;;;5019678;28;59267;-64
2023/06/02 14:35:56;;;;;;;0.77;0.60;;;;;;;;;;5019064;28;59574;-64
2023/06/02 14:38:21;;;;;;;3.07;1.47;;;;;;;;;;5025188;28;59614;-64